Aviation Digital Data Service (ADDS)

Output produced by METARs form (0157 UTC 25 February 2018)
found at http://aviationweather.gov/adds/metars/
 
KNEW 242327Z 2500/2524 18013KT P6SM VCSH SCT030 BKN060 
     FM250900 20009KT P6SM SCT010 BKN030 
     PROB30 2509/2511 4SM SHRA BKN010 BKN015 
     FM251100 20006KT P6SM BKN010 BKN015 
     PROB30 2511/2512 4SM SHRA OVC003 
     FM251300 20007KT 3SM SHRA SCT015 OVC020 
     FM251500 21007KT 3SM SHRA SCT015 BKN030 
     FM251800 24007KT 3SM SHRA SCT015 OVC045